createdAt,value
2023-01-18T00:01:04.589Z,1.17
2023-01-18T00:03:33.529Z,1.35
2023-01-18T00:06:04.616Z,1.20
2023-01-18T00:08:32.904Z,1.30
2023-01-18T00:11:18.953Z,1.20
2023-01-18T00:13:46.446Z,1.58
2023-01-18T00:16:21.563Z,1.60
2023-01-18T00:18:54.129Z,1.55
2023-01-18T00:21:21.067Z,1.30
2023-01-18T00:23:49.092Z,1.52
2023-01-18T00:26:15.936Z,1.48
2023-01-18T00:28:43.041Z,1.60
2023-01-18T00:31:23.094Z,1.38
2023-01-18T00:33:50.308Z,1.40
2023-01-18T00:36:18.337Z,1.60
2023-01-18T00:38:52.160Z,1.27
2023-01-18T00:41:19.924Z,1.43
2023-01-18T00:43:46.731Z,1.30
2023-01-18T00:46:19.165Z,1.50
2023-01-18T00:48:46.236Z,1.27
2023-01-18T00:51:16.148Z,1.17
2023-01-18T00:53:44.237Z,1.33
2023-01-18T00:56:14.330Z,1.40
2023-01-18T00:58:41.485Z,3.00
2023-01-18T01:01:10.034Z,1.80
2023-01-18T01:03:55.942Z,1.80
2023-01-18T01:06:46.725Z,1.52
2023-01-18T01:09:23.404Z,1.50
2023-01-18T01:12:09.603Z,1.60
2023-01-18T01:14:58.605Z,1.40
2023-01-18T01:17:43.822Z,1.40
2023-01-18T01:20:29.852Z,1.20
2023-01-18T01:23:15.620Z,1.55
2023-01-18T01:26:01.545Z,1.48
2023-01-18T01:28:28.321Z,1.50
2023-01-18T01:31:00.361Z,1.27
2023-01-18T01:33:28.446Z,1.27
2023-01-18T01:36:00.156Z,1.38
2023-01-18T01:38:27.469Z,1.25
2023-01-18T01:41:20.388Z,1.50
2023-01-18T01:43:51.096Z,1.30
2023-01-18T01:46:29.873Z,1.05
2023-01-18T01:49:06.816Z,1.38
2023-01-18T01:51:37.247Z,1.10
2023-01-18T01:54:08.470Z,1.20
2023-01-18T01:56:35.240Z,1.27
2023-01-18T01:59:04.306Z,0.90
2023-01-18T02:01:31.263Z,1.13
2023-01-18T02:04:00.610Z,1.27
2023-01-18T02:06:33.691Z,1.20
2023-01-18T02:09:01.946Z,1.17
2023-01-18T02:11:29.415Z,1.40
2023-01-18T02:14:00.539Z,1.40
2023-01-18T02:16:36.620Z,1.63
2023-01-18T02:19:41.138Z,1.20
2023-01-18T02:22:35.329Z,1.40
2023-01-18T02:25:13.304Z,1.25
2023-01-18T02:27:47.670Z,1.20
2023-01-18T02:30:21.823Z,1.00
2023-01-18T02:33:03.284Z,1.00
2023-01-18T02:35:55.899Z,1.05
2023-01-18T02:38:28.698Z,1.05
2023-01-18T02:41:12.909Z,1.25
2023-01-18T02:44:09.658Z,1.30
2023-01-18T02:46:38.708Z,1.10
2023-01-18T02:49:22.239Z,1.08
2023-01-18T02:52:04.834Z,1.15
2023-01-18T02:54:36.154Z,1.30
2023-01-18T02:57:08.362Z,1.20
2023-01-18T02:59:41.046Z,1.30
2023-01-18T03:02:16.473Z,1.38
2023-01-18T03:04:54.393Z,1.45
2023-01-18T03:07:29.611Z,1.58
2023-01-18T03:09:58.544Z,1.10
2023-01-18T03:12:25.191Z,1.40
2023-01-18T03:15:23.434Z,1.50
2023-01-18T03:17:57.325Z,1.80
2023-01-18T03:20:29.999Z,1.58
2023-01-18T03:23:36.380Z,1.50
2023-01-18T03:26:05.535Z,1.40
2023-01-18T03:29:09.169Z,1.50
2023-01-18T03:31:59.753Z,1.50
2023-01-18T03:34:33.766Z,2.08
2023-01-18T03:37:04.985Z,2.22
2023-01-18T03:39:43.877Z,2.17
2023-01-18T03:42:19.505Z,1.83
2023-01-18T03:44:59.880Z,1.70
2023-01-18T03:47:26.914Z,1.88
2023-01-18T03:49:53.708Z,1.90
2023-01-18T03:52:40.608Z,1.70
2023-01-18T03:55:13.335Z,1.77
2023-01-18T03:57:53.122Z,2.05
2023-01-18T04:00:20.647Z,1.75
2023-01-18T04:02:49.465Z,1.85
2023-01-18T04:05:17.343Z,1.88
2023-01-18T04:07:44.594Z,2.22
2023-01-18T04:10:11.580Z,1.92
2023-01-18T04:12:38.283Z,1.70
2023-01-18T04:15:05.583Z,1.95
2023-01-18T04:17:32.361Z,1.52
2023-01-18T04:19:59.253Z,1.77
2023-01-18T04:22:26.251Z,1.88
2023-01-18T04:24:53.065Z,1.58
2023-01-18T04:27:20.053Z,1.65
2023-01-18T04:29:46.939Z,1.80
2023-01-18T04:32:13.677Z,1.92
2023-01-18T04:34:40.509Z,1.75
2023-01-18T04:37:07.325Z,1.63
2023-01-18T04:39:34.088Z,1.80
2023-01-18T04:42:00.885Z,1.95
2023-01-18T04:44:27.695Z,1.75
2023-01-18T04:46:54.565Z,2.25
2023-01-18T04:49:21.418Z,2.38
2023-01-18T04:51:48.291Z,1.98
2023-01-18T04:54:17.275Z,2.08
2023-01-18T04:56:44.001Z,2.03
2023-01-18T04:59:15.631Z,1.98
2023-01-18T05:01:42.599Z,2.80
2023-01-18T05:04:10.477Z,3.00
2023-01-18T05:06:37.507Z,2.60
2023-01-18T05:09:11.509Z,2.60
2023-01-18T05:11:38.371Z,2.53
2023-01-18T05:14:05.155Z,2.70
2023-01-18T05:16:31.939Z,2.38
2023-01-18T05:18:58.672Z,2.50
2023-01-18T05:21:25.528Z,2.60
2023-01-18T05:23:52.515Z,2.30
2023-01-18T05:26:21.463Z,2.60
2023-01-18T05:28:49.835Z,2.78
2023-01-18T05:31:18.739Z,2.70
2023-01-18T05:33:45.716Z,2.78
2023-01-18T05:36:12.788Z,2.75
2023-01-18T05:38:39.502Z,2.97
2023-01-18T05:41:06.361Z,2.83
2023-01-18T05:43:35.587Z,2.90
2023-01-18T05:46:02.777Z,2.60
2023-01-18T05:48:30.080Z,2.75
2023-01-18T05:50:57.143Z,2.50
2023-01-18T05:53:23.933Z,2.35
2023-01-18T05:55:57.644Z,2.55
2023-01-18T05:58:25.854Z,2.50
2023-01-18T06:00:53.429Z,2.15
2023-01-18T06:03:20.611Z,2.80
2023-01-18T06:05:48.206Z,2.75
2023-01-18T06:08:15.675Z,2.50
2023-01-18T06:10:42.774Z,2.58
2023-01-18T06:13:10.323Z,3.17
2023-01-18T06:15:37.638Z,2.55
2023-01-18T06:18:05.096Z,2.80
2023-01-18T06:20:31.931Z,2.70
2023-01-18T06:22:59.056Z,2.70
2023-01-18T06:25:26.258Z,3.03
2023-01-18T06:27:53.085Z,2.83
2023-01-18T06:30:20.328Z,3.00
2023-01-18T06:32:49.216Z,3.22
2023-01-18T06:35:16.484Z,3.08
2023-01-18T06:37:46.680Z,2.92
2023-01-18T06:40:14.276Z,3.25
2023-01-18T06:42:41.697Z,2.90
2023-01-18T06:45:09.250Z,2.80
2023-01-18T06:47:36.000Z,3.05
2023-01-18T06:50:03.033Z,2.70
2023-01-18T06:52:29.796Z,2.97
2023-01-18T06:54:56.478Z,2.50
2023-01-18T06:57:23.941Z,2.70
2023-01-18T06:59:53.225Z,2.67
2023-01-18T07:02:21.123Z,2.67
2023-01-18T07:04:48.481Z,2.92
2023-01-18T07:07:15.252Z,2.53
2023-01-18T07:09:41.990Z,2.00
2023-01-18T07:12:09.325Z,2.05
2023-01-18T07:14:36.134Z,1.58
2023-01-18T07:17:02.948Z,1.70
2023-01-18T07:19:31.909Z,1.38
2023-01-18T07:21:59.670Z,1.45
2023-01-18T07:24:26.521Z,1.70
2023-01-18T07:26:53.897Z,2.08
2023-01-18T07:29:21.613Z,2.47
2023-01-18T07:31:48.444Z,1.90
2023-01-18T07:34:16.380Z,2.53
2023-01-18T07:36:43.711Z,2.70
2023-01-18T07:39:10.778Z,3.00
2023-01-18T07:41:38.257Z,2.83
2023-01-18T07:44:05.884Z,2.97
2023-01-18T07:46:32.705Z,2.80
2023-01-18T07:49:02.433Z,2.65
2023-01-18T07:51:30.262Z,2.90
2023-01-18T07:53:57.948Z,3.00
2023-01-18T07:56:25.791Z,2.85
2023-01-18T07:58:53.194Z,2.92
2023-01-18T08:01:22.417Z,3.10
2023-01-18T08:03:50.302Z,2.95
2023-01-18T08:06:24.973Z,2.90
2023-01-18T08:08:52.527Z,3.10
2023-01-18T08:11:20.236Z,3.03
2023-01-18T08:13:49.156Z,2.95
2023-01-18T08:16:16.576Z,2.80
2023-01-18T08:18:45.446Z,3.00
2023-01-18T08:21:13.479Z,2.65
2023-01-18T08:23:41.110Z,3.35
2023-01-18T08:26:12.828Z,3.35
2023-01-18T08:28:41.366Z,3.70
2023-01-18T08:31:14.442Z,3.53
2023-01-18T08:33:45.407Z,3.45
2023-01-18T08:36:16.932Z,3.90
2023-01-18T08:38:47.171Z,3.50
2023-01-18T08:41:14.201Z,3.85
2023-01-18T08:43:40.882Z,3.63
2023-01-18T08:46:07.789Z,3.70
2023-01-18T08:48:34.895Z,3.78
2023-01-18T08:51:03.199Z,4.00
2023-01-18T08:53:30.778Z,3.97
2023-01-18T08:55:57.992Z,3.33
2023-01-18T08:58:25.165Z,3.70
2023-01-18T09:00:53.405Z,4.10
2023-01-18T09:03:21.864Z,4.00
2023-01-18T09:05:49.371Z,4.00
2023-01-18T09:08:17.152Z,3.80
2023-01-18T09:10:44.788Z,3.60
2023-01-18T09:13:11.615Z,3.88
2023-01-18T09:15:38.780Z,3.70
2023-01-18T09:18:06.698Z,3.78
2023-01-18T09:20:36.027Z,4.05
2023-01-18T09:23:07.834Z,4.25
2023-01-18T09:25:36.725Z,4.50
2023-01-18T09:28:05.448Z,4.65
2023-01-18T09:30:33.360Z,4.65
2023-01-18T09:33:00.977Z,4.07
2023-01-18T09:35:28.113Z,4.78
2023-01-18T09:37:55.365Z,4.22
2023-01-18T09:40:27.282Z,4.50
2023-01-18T09:42:54.050Z,4.13
2023-01-18T09:45:28.340Z,4.10
2023-01-18T09:48:04.824Z,4.72
2023-01-18T09:50:38.507Z,4.20
2023-01-18T09:53:13.501Z,3.88
2023-01-18T09:56:06.587Z,3.80
2023-01-18T09:58:36.231Z,5.45
2023-01-18T10:01:16.126Z,5.13
2023-01-18T10:04:04.663Z,5.43
2023-01-18T10:06:44.478Z,5.07
2023-01-18T10:09:31.721Z,3.72
2023-01-18T10:12:01.713Z,4.63
2023-01-18T10:14:43.649Z,3.83
2023-01-18T10:17:14.725Z,5.15
2023-01-18T10:19:41.834Z,4.70
2023-01-18T10:22:21.741Z,5.80
2023-01-18T10:25:10.766Z,5.72
2023-01-18T10:28:12.810Z,5.88
2023-01-18T10:30:55.760Z,5.43
2023-01-18T10:33:30.103Z,5.70
2023-01-18T10:36:02.200Z,5.30
2023-01-18T10:38:30.697Z,5.75
2023-01-18T10:41:03.278Z,4.60
2023-01-18T10:43:31.838Z,4.95
2023-01-18T10:45:58.924Z,4.88
2023-01-18T10:48:30.333Z,4.80
2023-01-18T10:51:03.678Z,4.72
2023-01-18T10:53:38.962Z,5.47
2023-01-18T10:56:20.955Z,5.13
2023-01-18T10:58:50.969Z,5.07
2023-01-18T11:01:24.342Z,6.45
2023-01-18T11:03:52.610Z,5.80
2023-01-18T11:06:22.909Z,5.88
2023-01-18T11:08:50.862Z,6.40
2023-01-18T11:11:50.852Z,6.32
2023-01-18T11:14:26.600Z,5.47
2023-01-18T11:17:03.650Z,5.47
2023-01-18T11:19:30.617Z,5.63
2023-01-18T11:21:57.385Z,6.45
2023-01-18T11:24:32.143Z,6.28
2023-01-18T11:29:39.634Z,5.47
2023-01-18T11:32:19.697Z,5.38
2023-01-18T11:34:51.682Z,4.80
2023-01-18T11:37:37.847Z,5.00
2023-01-18T11:40:26.592Z,4.78
2023-01-18T11:43:17.321Z,4.97
2023-01-18T11:45:59.582Z,5.30
2023-01-18T11:48:35.834Z,4.40
2023-01-18T11:51:25.720Z,5.15
2023-01-18T11:54:33.719Z,4.70
2023-01-18T11:59:57.594Z,4.82
2023-01-18T12:02:45.595Z,5.57
2023-01-18T12:05:45.024Z,4.95
2023-01-18T12:08:38.196Z,5.40
2023-01-18T12:11:30.027Z,5.75
2023-01-18T12:13:59.332Z,4.88
2023-01-18T12:16:44.935Z,4.95
2023-01-18T12:20:02.726Z,4.90
2023-01-18T12:22:50.382Z,4.90
2023-01-18T12:25:20.454Z,4.72
2023-01-18T12:28:21.321Z,4.57
2023-01-18T12:31:00.218Z,4.72
2023-01-18T12:33:43.141Z,4.90
2023-01-18T12:36:19.252Z,4.55
2023-01-18T12:38:56.230Z,4.25
2023-01-18T12:41:33.622Z,4.38
2023-01-18T12:44:32.944Z,4.78
2023-01-18T12:47:05.665Z,4.50
2023-01-18T12:49:38.255Z,4.82
2023-01-18T12:52:18.166Z,4.68
2023-01-18T12:54:50.279Z,3.90
2023-01-18T12:57:18.381Z,4.07
2023-01-18T13:00:01.805Z,3.50
2023-01-18T13:02:34.403Z,3.70
2023-01-18T13:05:22.216Z,3.50
2023-01-18T13:07:54.256Z,3.30
2023-01-18T13:10:27.107Z,3.05
2023-01-18T13:12:56.000Z,3.30
2023-01-18T13:15:52.994Z,2.95
2023-01-18T13:18:49.680Z,2.67
2023-01-18T13:21:16.716Z,2.80
2023-01-18T13:23:49.384Z,2.83
2023-01-18T13:26:29.393Z,2.70
2023-01-18T13:29:32.062Z,2.90
2023-01-18T13:32:00.154Z,2.67
2023-01-18T13:34:32.100Z,2.50
2023-01-18T13:37:14.031Z,2.50
2023-01-18T13:39:48.532Z,2.50
2023-01-18T13:42:24.120Z,2.75
2023-01-18T13:45:15.150Z,2.40
2023-01-18T13:47:47.052Z,2.40
2023-01-18T13:50:39.446Z,2.50
2023-01-18T13:53:18.936Z,2.40
2023-01-18T13:56:24.382Z,2.78
2023-01-18T13:59:14.309Z,2.20
2023-01-18T14:01:44.024Z,2.22
2023-01-18T14:04:23.270Z,2.40
2023-01-18T14:06:51.559Z,2.40
2023-01-18T14:09:28.296Z,2.50
2023-01-18T14:11:57.300Z,2.40
2023-01-18T14:14:30.745Z,2.47
2023-01-18T14:17:10.255Z,2.20
2023-01-18T14:19:49.586Z,2.10
2023-01-18T14:22:53.571Z,2.40
2023-01-18T14:25:26.303Z,2.60
2023-01-18T14:28:12.226Z,2.88
2023-01-18T14:30:41.443Z,2.72
2023-01-18T14:33:16.423Z,2.58
2023-01-18T14:35:54.587Z,2.60
2023-01-18T14:38:21.825Z,2.60
2023-01-18T14:40:55.289Z,3.13
2023-01-18T14:43:37.763Z,3.60
2023-01-18T14:46:15.712Z,3.92
2023-01-18T14:48:51.983Z,4.68
2023-01-18T14:51:25.036Z,4.15
2023-01-18T14:53:57.934Z,4.38
2023-01-18T14:56:27.167Z,5.47
2023-01-18T14:59:05.807Z,4.20
2023-01-18T15:01:34.413Z,4.18
2023-01-18T15:04:05.466Z,3.22
2023-01-18T15:06:38.455Z,3.13
2023-01-18T15:09:08.195Z,3.70
2023-01-18T15:11:37.115Z,3.08
2023-01-18T15:14:15.645Z,3.30
2023-01-18T15:16:42.597Z,2.85
2023-01-18T15:19:20.215Z,2.92
2023-01-18T15:21:47.373Z,2.25
2023-01-18T15:24:18.829Z,2.42
2023-01-18T15:27:03.012Z,2.28
2023-01-18T15:29:36.681Z,2.40
2023-01-18T15:32:12.483Z,2.40
2023-01-18T15:34:47.063Z,2.33
2023-01-18T15:37:26.848Z,2.47
2023-01-18T15:39:59.757Z,2.42
2023-01-18T15:42:53.787Z,2.40
2023-01-18T15:45:23.655Z,2.40
2023-01-18T15:47:55.739Z,2.40
2023-01-18T15:50:26.107Z,2.13
2023-01-18T15:53:11.892Z,2.20
2023-01-18T15:55:41.072Z,2.30
2023-01-18T15:58:24.372Z,2.20
2023-01-18T16:01:01.294Z,2.00
2023-01-18T16:03:40.713Z,2.08
2023-01-18T16:06:17.695Z,2.38
2023-01-18T16:09:11.862Z,2.40
2023-01-18T16:11:42.959Z,2.13
2023-01-18T16:14:35.327Z,2.50
2023-01-18T16:17:22.839Z,2.05
2023-01-18T16:19:55.930Z,2.17
2023-01-18T16:22:33.991Z,1.90
2023-01-18T16:25:10.142Z,1.75
2023-01-18T16:27:49.046Z,2.10
2023-01-18T16:30:25.447Z,1.95
2023-01-18T16:32:52.507Z,1.90
2023-01-18T16:35:21.930Z,2.10
2023-01-18T16:37:49.712Z,2.10
2023-01-18T16:40:19.777Z,1.90
2023-01-18T16:43:01.465Z,2.00
2023-01-18T16:45:30.274Z,2.08
2023-01-18T16:47:57.484Z,2.30
2023-01-18T16:50:24.458Z,2.30
2023-01-18T16:52:51.520Z,2.80
2023-01-18T16:55:18.385Z,2.60
2023-01-18T16:57:45.522Z,2.40
2023-01-18T17:00:23.115Z,2.30
2023-01-18T17:02:50.273Z,2.00
2023-01-18T17:05:17.365Z,2.10
2023-01-18T17:07:44.481Z,2.10
2023-01-18T17:10:37.836Z,2.70
2023-01-18T17:13:04.809Z,2.55
2023-01-18T17:15:34.691Z,2.63
2023-01-18T17:18:04.855Z,2.97
2023-01-18T17:20:32.033Z,3.83
2023-01-18T17:22:59.389Z,2.95
2023-01-18T17:25:26.710Z,3.03
2023-01-18T17:27:56.083Z,3.00
2023-01-18T17:30:24.983Z,2.80
2023-01-18T17:32:52.357Z,3.20
2023-01-18T17:35:22.581Z,2.95
2023-01-18T17:37:54.527Z,3.40
2023-01-18T17:40:39.409Z,2.70
2023-01-18T17:43:28.471Z,2.47
2023-01-18T17:46:11.093Z,2.50
2023-01-18T17:48:38.352Z,2.50
2023-01-18T17:51:10.995Z,2.78
2023-01-18T17:53:38.953Z,3.10
2023-01-18T17:56:10.129Z,3.65
2023-01-18T17:58:37.163Z,3.00
2023-01-18T18:01:14.212Z,3.10
2023-01-18T18:03:45.009Z,3.08
2023-01-18T18:06:14.455Z,3.30
2023-01-18T18:08:41.949Z,2.88
2023-01-18T18:11:10.380Z,2.80
2023-01-18T18:13:37.415Z,3.00
2023-01-18T18:16:05.339Z,2.60
2023-01-18T18:18:33.837Z,3.00
2023-01-18T18:21:03.991Z,2.67
2023-01-18T18:23:31.129Z,2.50
2023-01-18T18:25:58.343Z,2.58
2023-01-18T18:28:27.717Z,2.22
2023-01-18T18:30:57.852Z,2.20
2023-01-18T18:33:26.169Z,2.58
2023-01-18T18:35:53.647Z,2.40
2023-01-18T18:38:23.974Z,2.80
2023-01-18T18:40:51.262Z,3.90
2023-01-18T18:43:18.287Z,3.53
2023-01-18T18:45:45.997Z,3.35
2023-01-18T18:48:13.149Z,3.20
2023-01-18T18:50:40.246Z,2.92
2023-01-18T18:53:07.394Z,2.95
2023-01-18T18:55:34.362Z,2.85
2023-01-18T18:58:01.611Z,3.00
2023-01-18T19:00:28.743Z,2.65
2023-01-18T19:03:00.424Z,2.50
2023-01-18T19:05:28.857Z,2.30
2023-01-18T19:07:55.906Z,2.13
2023-01-18T19:10:26.943Z,2.38
2023-01-18T19:12:54.677Z,2.15
2023-01-18T19:15:21.729Z,2.65
2023-01-18T19:17:50.105Z,2.63
2023-01-18T19:20:20.502Z,3.58
2023-01-18T19:22:47.746Z,3.65
2023-01-18T19:25:21.528Z,3.78
2023-01-18T19:27:48.375Z,4.23
2023-01-18T19:30:22.750Z,4.63
2023-01-18T19:32:51.098Z,4.78
2023-01-18T19:35:19.548Z,4.60
2023-01-18T19:37:47.570Z,4.72
2023-01-18T19:40:16.246Z,3.90
2023-01-18T19:42:44.406Z,4.90
2023-01-18T19:45:13.886Z,4.03
2023-01-18T19:47:48.248Z,4.07
2023-01-18T19:50:15.919Z,3.72
2023-01-18T19:52:43.181Z,3.55
2023-01-18T19:55:10.132Z,3.70
2023-01-18T19:57:36.862Z,3.75
2023-01-18T20:00:07.054Z,3.13
2023-01-18T20:02:39.886Z,3.05
2023-01-18T20:05:07.185Z,2.47
2023-01-18T20:07:34.282Z,2.70
2023-01-18T20:10:01.203Z,2.10
2023-01-18T20:12:31.213Z,2.55
2023-01-18T20:14:58.659Z,3.20
2023-01-18T20:17:26.029Z,3.63
2023-01-18T20:19:54.122Z,3.35
2023-01-18T20:22:22.240Z,3.22
2023-01-18T20:24:49.290Z,3.10
2023-01-18T20:27:19.994Z,3.20
2023-01-18T20:29:46.804Z,2.85
2023-01-18T20:32:16.583Z,3.08
2023-01-18T20:34:46.789Z,3.15
2023-01-18T20:37:14.942Z,2.90
2023-01-18T20:39:42.248Z,2.83
2023-01-18T20:42:09.176Z,2.70
2023-01-18T20:44:36.205Z,2.63
2023-01-18T20:47:03.060Z,2.78
2023-01-18T20:49:37.849Z,2.50
2023-01-18T20:52:06.735Z,2.80
2023-01-18T20:54:35.744Z,2.08
2023-01-18T20:57:03.778Z,2.50
2023-01-18T20:59:30.578Z,2.13
2023-01-18T21:01:57.501Z,2.50
2023-01-18T21:04:25.607Z,3.08
2023-01-18T21:06:52.458Z,4.07
2023-01-18T21:09:19.317Z,4.22
2023-01-18T21:11:46.075Z,4.18
2023-01-18T21:14:12.939Z,3.88
2023-01-18T21:16:40.279Z,4.40
2023-01-18T21:19:07.373Z,3.92
2023-01-18T21:21:34.330Z,4.45
2023-01-18T21:24:01.268Z,4.40
2023-01-18T21:26:28.428Z,5.00
2023-01-18T21:28:55.596Z,4.63
2023-01-18T21:31:23.226Z,4.10
2023-01-18T21:33:50.070Z,4.85
2023-01-18T21:36:18.426Z,4.80
2023-01-18T21:38:45.473Z,5.30
2023-01-18T21:41:31.377Z,4.43
2023-01-18T21:44:16.847Z,4.70
2023-01-18T21:46:51.736Z,3.70
2023-01-18T21:50:15.889Z,3.97
2023-01-18T21:52:43.681Z,3.80
2023-01-18T21:55:10.590Z,3.78
2023-01-18T21:57:38.584Z,3.70
2023-01-18T22:00:06.152Z,4.57
2023-01-18T22:02:34.849Z,4.40
2023-01-18T22:05:03.690Z,3.90
2023-01-18T22:07:33.841Z,4.00
2023-01-18T22:10:06.617Z,4.10
2023-01-18T22:12:35.506Z,3.63
2023-01-18T22:15:04.244Z,3.70
2023-01-18T22:17:31.117Z,3.95
2023-01-18T22:19:57.878Z,4.03
2023-01-18T22:22:24.625Z,4.57
2023-01-18T22:24:51.738Z,5.65
2023-01-18T22:27:18.493Z,5.50
2023-01-18T22:29:45.226Z,6.22
2023-01-18T22:32:12.029Z,6.47
2023-01-18T22:34:38.803Z,6.75
2023-01-18T22:37:05.721Z,7.78
2023-01-18T22:39:32.661Z,7.93
2023-01-18T22:41:59.403Z,6.93
2023-01-18T22:44:26.297Z,6.88
2023-01-18T22:46:56.549Z,6.97
2023-01-18T22:49:23.400Z,6.80
2023-01-18T22:51:50.222Z,8.00
2023-01-18T22:54:19.212Z,7.07
2023-01-18T22:56:45.966Z,6.00
2023-01-18T22:59:13.672Z,6.18
2023-01-18T23:01:40.500Z,5.30
2023-01-18T23:04:08.729Z,5.97
2023-01-18T23:06:46.763Z,5.63
2023-01-18T23:09:17.462Z,5.88
2023-01-18T23:11:44.915Z,4.90
2023-01-18T23:14:30.408Z,5.00
2023-01-18T23:17:15.796Z,5.22
2023-01-18T23:19:42.521Z,5.00
2023-01-18T23:22:09.367Z,4.75
2023-01-18T23:24:37.729Z,4.72
2023-01-18T23:27:07.311Z,5.28
2023-01-18T23:29:34.416Z,5.65
2023-01-18T23:32:01.488Z,5.47
2023-01-18T23:34:28.384Z,5.43
2023-01-18T23:36:55.199Z,5.65
2023-01-18T23:39:40.388Z,6.10
2023-01-18T23:42:25.888Z,6.03
2023-01-18T23:45:12.370Z,6.25
2023-01-18T23:47:58.152Z,5.68
2023-01-18T23:50:44.654Z,5.15
2023-01-18T23:53:31.691Z,4.45
2023-01-18T23:55:59.486Z,5.00
2023-01-18T23:58:26.791Z,4.20
